13IN weather

Gage Airport
Decatur, Indiana, United States

Public forecast

Using degrees Fahrenheit for public forecast. Weather courtesy of forecast.io.

METAR (pilot weather report)

Closest report is Fort Wayne International Airport, 15.6 nm (28.9 km) NW. Retrieved 2019/04/22 13:54 UTC (30 minutes ago):

KFWA 221354Z 18010KT 10SM FEW150 SCT250 16/10 A3020 RMK AO2 SLP225 T01560100

TAF (pilot weather forecast)

Closest forecast is Fort Wayne International Airport, 15.6 nm (28.9 km) NW. Retrieved 2019/04/22 12:24 UTC (2 hours ago):

TAF KFWA 221121Z 2212/2312 15007KT P6SM SCT250 FM221600 17013G22KT P6SM BKN250 FM230600 20012KT P6SM BKN040 WS020/22045KT